PWSweather.com
Personal Weather Stations
Station Observations
WH6KOWX
Next To Mccormick Park, St Helens, OR 97051-2144

Next To Mccormick ParkSt Helens, OR 97051-2144

Lat: 45.85439, Lon: -122.81898

Elevation: 79

Station Type: DAVIS Vantage Pro2 PLUS (6163)

http://www.wh6ko.net/wxhome.html

Latest ConditionsUpdated 9:00:28 AM PDT Friday, Oct 31, 2014
Currently Today's Max Today's Min Today's Average
Temperature 50.6°F10.3°C 56.9°F13.8°C 50.5°F10.3°C 53.2°F11.8°C
Dew Point 50.3°F10.2°C 56.9°F13.8°C 50.0°F10.0°C 52.9°F11.6°C
Winds Calm Calm 5.0 mph WNW8.0 kmh WNW - 0.4 mph 0.6 kmh
Wind Gusts -- 7.0 mph11.3 kmh - -
Humidity 99% 100% 98% 99%
Pressure 29.79 in1008.8 mb 29.79 in1008.8 mb 29.64 in1003.7 mb -
Hour Temp Dew Point Humidity Winds Wind Gusts Pressure Precip Precip Rate Daily Precip Total
09:00 AM 50.6°F10.3°C 50.3°F10.2°C 99% Calm Calm -- 29.79 in1008.8 mb 0.04 in1.0 mm 0.00 in/hr0.0 mm/hr 0.32 in8.1 mm
08:40 AM 50.6°F10.3°C 50.3°F10.2°C 99% Calm Calm -- 29.74 in1007.1 mb 0.05 in1.3 mm 0.00 in/hr0.0 mm/hr 0.32 in8.1 mm
08:20 AM 50.5°F10.3°C 50.0°F10.0°C 98% Calm Calm 2.0 mph3.2 kmh 29.74 in1007.1 mb 0.07 in1.8 mm 0.03 in/hr0.8 mm/hr 0.32 in8.1 mm
08:00 AM 50.6°F10.3°C 50.1°F10.1°C 98% Calm Calm -- 29.73 in1006.8 mb 0.06 in1.5 mm 0.00 in/hr0.0 mm/hr 0.31 in7.9 mm
07:40 AM 50.7°F10.4°C 50.2°F10.1°C 98% Calm Calm 6.0 mph9.7 kmh 29.70 in1005.8 mb 0.09 in2.3 mm 0.00 in/hr0.0 mm/hr 0.31 in7.9 mm
07:20 AM 51.1°F10.6°C 50.6°F10.3°C 98% Calm Calm 7.0 mph11.3 kmh 29.70 in1005.8 mb 0.17 in4.3 mm 0.06 in/hr1.5 mm/hr 0.31 in7.9 mm
07:00 AM 51.4°F10.8°C 51.1°F10.6°C 99% 5.0 mph WNW8.0 kmh WNW 7.0 mph11.3 kmh 29.69 in1005.4 mb 0.15 in3.8 mm 0.00 in/hr0.0 mm/hr 0.29 in7.4 mm
06:40 AM 51.7°F10.9°C 51.4°F10.8°C 99% Calm Calm 4.0 mph6.4 kmh 29.67 in1004.7 mb 0.17 in4.3 mm 0.03 in/hr0.8 mm/hr 0.29 in7.4 mm
06:20 AM 51.9°F11.1°C 51.6°F10.9°C 99% Calm Calm 4.0 mph6.4 kmh 29.67 in1004.7 mb 0.16 in4.1 mm 0.21 in/hr5.3 mm/hr 0.28 in7.1 mm
06:00 AM 52.2°F11.2°C 51.9°F11.1°C 99% Calm Calm -- 29.65 in1004.1 mb 0.09 in2.3 mm 0.00 in/hr0.0 mm/hr 0.21 in5.3 mm
05:40 AM 52.6°F11.4°C 52.3°F11.3°C 99% Calm Calm 5.0 mph8.0 kmh 29.64 in1003.7 mb 0.11 in2.8 mm 0.00 in/hr0.0 mm/hr 0.21 in5.3 mm
05:20 AM 52.9°F11.6°C 52.9°F11.6°C 100% Calm Calm 3.0 mph4.8 kmh 29.64 in1003.7 mb 0.12 in3.0 mm 0.09 in/hr2.3 mm/hr 0.21 in5.3 mm
05:00 AM 53.0°F11.7°C 53.0°F11.7°C 100% 1.0 mph NW1.6 kmh NW 1.0 mph1.6 kmh 29.64 in1003.7 mb 0.09 in2.3 mm 0.00 in/hr0.0 mm/hr 0.18 in4.6 mm
04:40 AM 53.2°F11.8°C 52.9°F11.6°C 99% 3.0 mph NW4.8 kmh NW 3.0 mph4.8 kmh 29.65 in1004.1 mb 0.10 in2.5 mm 0.03 in/hr0.8 mm/hr 0.18 in4.6 mm
04:20 AM 53.2°F11.8°C 52.9°F11.6°C 99% Calm Calm 3.0 mph4.8 kmh 29.65 in1004.1 mb 0.09 in2.3 mm 0.03 in/hr0.8 mm/hr 0.17 in4.3 mm
04:00 AM 53.3°F11.8°C 53.3°F11.8°C 100% Calm Calm -- 29.65 in1004.1 mb 0.08 in2.0 mm 0.02 in/hr0.5 mm/hr 0.16 in4.1 mm
03:40 AM 53.3°F11.8°C 53.0°F11.7°C 99% Calm Calm -- 29.66 in1004.4 mb 0.07 in1.8 mm 0.12 in/hr3.0 mm/hr 0.15 in3.8 mm
03:20 AM 53.5°F11.9°C 53.2°F11.8°C 99% Calm Calm -- 29.67 in1004.7 mb 0.03 in0.8 mm 0.03 in/hr0.8 mm/hr 0.11 in2.8 mm
03:00 AM 53.7°F12.1°C 53.4°F11.9°C 99% Calm Calm -- 29.67 in1004.7 mb 0.02 in0.5 mm 0.00 in/hr0.0 mm/hr 0.10 in2.5 mm
02:40 AM 53.9°F12.2°C 53.6°F12.0°C 99% Calm Calm -- 29.68 in1005.1 mb 0.03 in0.8 mm 0.06 in/hr1.5 mm/hr 0.10 in2.5 mm
02:20 AM 54.3°F12.4°C 54.0°F12.2°C 99% Calm Calm 2.0 mph3.2 kmh 29.68 in1005.1 mb 0.01 in0.3 mm 0.00 in/hr0.0 mm/hr 0.08 in2.0 mm
02:00 AM 54.6°F12.6°C 54.3°F12.4°C 99% Calm Calm -- 29.69 in1005.4 mb 0.01 in0.3 mm 0.00 in/hr0.0 mm/hr 0.08 in2.0 mm
01:40 AM 54.8°F12.7°C 54.5°F12.5°C 99% Calm Calm 2.0 mph3.2 kmh 29.70 in1005.8 mb 0.02 in0.5 mm 0.00 in/hr0.0 mm/hr 0.08 in2.0 mm
01:20 AM 55.1°F12.8°C 54.8°F12.7°C 99% Calm Calm 3.0 mph4.8 kmh 29.70 in1005.8 mb 0.05 in1.3 mm 0.00 in/hr0.0 mm/hr 0.08 in2.0 mm
01:00 AM 55.9°F13.3°C 55.6°F13.1°C 99% Calm Calm 2.0 mph3.2 kmh 29.71 in1006.1 mb 0.05 in1.3 mm 0.00 in/hr0.0 mm/hr 0.08 in2.0 mm
12:40 AM 56.6°F13.7°C 56.6°F13.7°C 100% 1.0 mph ENE1.6 kmh ENE 3.0 mph4.8 kmh 29.71 in1006.1 mb 0.07 in1.8 mm 0.00 in/hr0.0 mm/hr 0.08 in2.0 mm
12:20 AM 56.7°F13.7°C 56.7°F13.7°C 100% Calm Calm -- 29.73 in1006.8 mb 0.08 in2.0 mm 0.06 in/hr1.5 mm/hr 0.08 in2.0 mm
12:00 AM 56.9°F13.8°C 56.9°F13.8°C 100% Calm Calm -- 29.73 in1006.8 mb 0.06 in1.5 mm 0.00 in/hr0.0 mm/hr 0.06 in1.5 mm